createdAt,value
2017-08-20T00:00:10.228Z,9.60
2017-08-20T00:01:10.219Z,9.64
2017-08-20T00:02:10.208Z,9.56
2017-08-20T00:03:10.203Z,9.53
2017-08-20T00:04:10.287Z,9.47
2017-08-20T00:05:10.176Z,9.46
2017-08-20T00:06:10.164Z,9.46
2017-08-20T00:07:10.153Z,9.40
2017-08-20T00:08:10.143Z,9.39
2017-08-20T00:09:10.136Z,9.33
2017-08-20T00:10:10.229Z,9.31
2017-08-20T00:11:10.110Z,9.28
2017-08-20T00:12:10.099Z,9.31
2017-08-20T00:13:10.089Z,9.33
2017-08-20T00:14:10.083Z,9.20
2017-08-20T00:15:10.072Z,9.29
2017-08-20T00:16:10.162Z,9.18
2017-08-20T00:17:10.050Z,9.23
2017-08-20T00:18:10.039Z,9.14
2017-08-20T00:19:10.022Z,9.15
2017-08-20T00:20:10.011Z,9.11
2017-08-20T00:21:10.005Z,8.98
2017-08-20T00:22:10.088Z,9.05
2017-08-20T00:23:09.982Z,9.04
2017-08-20T00:24:09.967Z,9.01
2017-08-20T00:25:09.968Z,8.99
2017-08-20T00:26:09.942Z,8.98
2017-08-20T00:27:09.931Z,9.02
2017-08-20T00:28:10.025Z,8.99
2017-08-20T00:29:09.914Z,8.98
2017-08-20T00:30:09.903Z,8.95
2017-08-20T00:31:09.891Z,8.92
2017-08-20T00:32:09.875Z,8.98
2017-08-20T00:33:09.868Z,8.99
2017-08-20T00:34:09.951Z,8.98
2017-08-20T00:35:09.840Z,8.91
2017-08-20T00:36:09.835Z,8.87
2017-08-20T00:37:09.816Z,8.83
2017-08-20T00:38:09.805Z,8.92
2017-08-20T00:39:09.793Z,8.91
2017-08-20T00:40:09.882Z,8.86
2017-08-20T00:41:09.771Z,8.83
2017-08-20T00:42:09.765Z,8.81
2017-08-20T00:43:09.752Z,8.83
2017-08-20T00:44:09.742Z,8.89
2017-08-20T00:45:09.725Z,8.94
2017-08-20T00:46:09.812Z,8.83
2017-08-20T00:47:09.701Z,8.77
2017-08-20T00:48:09.689Z,8.77
2017-08-20T00:49:09.676Z,8.89
2017-08-20T00:50:09.672Z,8.86
2017-08-20T00:51:09.904Z,8.92
2017-08-20T00:52:09.743Z,8.89
2017-08-20T00:53:09.630Z,8.83
2017-08-20T00:54:09.619Z,8.73
2017-08-20T00:55:09.613Z,8.80
2017-08-20T00:56:09.602Z,8.77
2017-08-20T00:57:09.583Z,8.87
2017-08-20T00:58:09.673Z,8.84
2017-08-20T00:59:09.560Z,8.71
2017-08-20T01:00:09.564Z,8.73
2017-08-20T01:01:09.543Z,8.71
2017-08-20T01:02:09.526Z,8.80
2017-08-20T01:03:09.513Z,8.74
2017-08-20T01:04:09.613Z,8.74
2017-08-20T01:05:09.490Z,8.76
2017-08-20T01:06:09.483Z,8.74
2017-08-20T01:07:09.472Z,8.70
2017-08-20T01:08:09.461Z,8.71
2017-08-20T01:09:09.442Z,8.63
2017-08-20T01:10:09.533Z,8.61
2017-08-20T01:11:09.419Z,8.62
2017-08-20T01:12:09.414Z,8.59
2017-08-20T01:13:09.395Z,8.66
2017-08-20T01:14:09.384Z,8.53
2017-08-20T01:15:09.378Z,8.58
2017-08-20T01:16:09.462Z,8.58
2017-08-20T01:17:09.348Z,8.62
2017-08-20T01:18:09.339Z,8.59
2017-08-20T01:19:09.326Z,8.70
2017-08-20T01:20:09.315Z,8.62
2017-08-20T01:21:09.302Z,8.53
2017-08-20T01:22:09.390Z,8.63
2017-08-20T01:23:09.285Z,8.62
2017-08-20T01:24:09.278Z,8.61
2017-08-20T01:25:09.256Z,8.59
2017-08-20T01:26:09.243Z,8.52
2017-08-20T01:27:09.236Z,8.53
2017-08-20T01:28:09.526Z,8.47
2017-08-20T01:29:09.208Z,8.50
2017-08-20T01:30:09.196Z,8.45
2017-08-20T01:31:09.184Z,8.44
2017-08-20T01:32:09.173Z,8.38
2017-08-20T01:33:09.161Z,8.43
2017-08-20T01:34:09.255Z,8.44
2017-08-20T01:35:09.142Z,8.33
2017-08-20T01:36:09.126Z,8.33
2017-08-20T01:37:09.112Z,8.34
2017-08-20T01:38:09.109Z,8.33
2017-08-20T01:39:09.088Z,8.30
2017-08-20T01:40:09.182Z,8.23
2017-08-20T01:41:09.063Z,8.22
2017-08-20T01:42:09.052Z,8.23
2017-08-20T01:43:09.040Z,8.25
2017-08-20T01:44:09.028Z,8.20
2017-08-20T01:45:09.015Z,8.19
2017-08-20T01:46:09.103Z,8.23
2017-08-20T01:47:08.992Z,8.18
2017-08-20T01:48:08.987Z,8.22
2017-08-20T01:49:08.966Z,8.16
2017-08-20T01:50:08.958Z,8.12
2017-08-20T01:51:08.949Z,8.12
2017-08-20T01:52:09.033Z,8.11
2017-08-20T01:53:08.924Z,8.10
2017-08-20T01:54:08.908Z,8.11
2017-08-20T01:55:08.895Z,8.18
2017-08-20T01:56:08.883Z,8.10
2017-08-20T01:57:08.870Z,8.11
2017-08-20T01:58:08.964Z,8.11
2017-08-20T01:59:08.848Z,8.11
2017-08-20T02:00:08.835Z,8.10
2017-08-20T02:01:08.822Z,8.12
2017-08-20T02:02:08.820Z,8.08
2017-08-20T02:03:08.804Z,8.07
2017-08-20T02:04:08.786Z,8.12
2017-08-20T02:05:08.780Z,8.07
2017-08-20T02:06:08.762Z,8.15
2017-08-20T02:07:08.749Z,8.04
2017-08-20T02:08:08.738Z,8.10
2017-08-20T02:09:08.724Z,8.07
2017-08-20T02:10:08.719Z,8.07
2017-08-20T02:11:08.701Z,8.01
2017-08-20T02:12:08.690Z,8.05
2017-08-20T02:13:08.681Z,7.95
2017-08-20T02:14:08.665Z,8.01
2017-08-20T02:15:08.653Z,8.04
2017-08-20T02:16:08.643Z,8.00
2017-08-20T02:17:08.728Z,7.97
2017-08-20T02:18:08.637Z,7.98
2017-08-20T02:19:08.610Z,8.00
2017-08-20T02:20:08.599Z,8.00
2017-08-20T02:21:08.580Z,7.98
2017-08-20T02:22:08.569Z,7.90
2017-08-20T02:23:08.556Z,7.98
2017-08-20T02:24:08.550Z,8.00
2017-08-20T02:25:08.531Z,7.87
2017-08-20T02:26:08.525Z,7.97
2017-08-20T02:27:08.613Z,7.90
2017-08-20T02:28:08.496Z,7.92
2017-08-20T02:29:08.489Z,7.85
2017-08-20T02:30:08.470Z,7.90
2017-08-20T02:31:08.459Z,7.92
2017-08-20T02:32:08.447Z,7.83
2017-08-20T02:33:08.733Z,7.89
2017-08-20T02:34:08.422Z,7.89
2017-08-20T02:35:08.410Z,7.92
2017-08-20T02:36:08.417Z,7.85
2017-08-20T02:37:08.384Z,7.77
2017-08-20T02:38:08.378Z,7.89
2017-08-20T02:39:08.459Z,7.80
2017-08-20T02:40:08.348Z,7.77
2017-08-20T02:41:08.337Z,7.75
2017-08-20T02:42:08.328Z,7.80
2017-08-20T02:43:08.316Z,7.82
2017-08-20T02:44:08.298Z,7.80
2017-08-20T02:45:08.393Z,7.80
2017-08-20T02:46:08.278Z,7.82
2017-08-20T02:47:08.267Z,7.77
2017-08-20T02:48:08.255Z,7.80
2017-08-20T02:49:08.235Z,7.82
2017-08-20T02:50:08.224Z,7.80
2017-08-20T02:51:08.319Z,7.79
2017-08-20T02:52:08.199Z,7.77
2017-08-20T02:53:08.192Z,7.77
2017-08-20T02:54:08.182Z,7.71
2017-08-20T02:55:08.163Z,7.75
2017-08-20T02:56:08.151Z,7.75
2017-08-20T02:57:08.136Z,7.85
2017-08-20T02:58:08.126Z,7.77
2017-08-20T02:59:08.212Z,7.77
2017-08-20T03:00:08.106Z,7.77
2017-08-20T03:01:08.086Z,7.75
2017-08-20T03:02:08.075Z,7.82
2017-08-20T03:03:08.062Z,7.77
2017-08-20T03:04:08.051Z,7.74
2017-08-20T03:05:08.137Z,7.79
2017-08-20T03:06:08.031Z,7.83
2017-08-20T03:07:08.012Z,7.80
2017-08-20T03:08:08.001Z,7.80
2017-08-20T03:09:07.994Z,7.85
2017-08-20T03:10:07.981Z,7.75
2017-08-20T03:11:08.065Z,7.80
2017-08-20T03:12:07.951Z,7.89
2017-08-20T03:13:07.943Z,7.92
2017-08-20T03:14:07.927Z,7.87
2017-08-20T03:15:07.914Z,7.93
2017-08-20T03:16:07.902Z,7.87
2017-08-20T03:17:07.995Z,7.93
2017-08-20T03:18:07.878Z,7.95
2017-08-20T03:19:07.864Z,7.95
2017-08-20T03:20:07.852Z,7.93
2017-08-20T03:21:07.840Z,7.95
2017-08-20T03:22:07.827Z,7.98
2017-08-20T03:23:07.921Z,7.98
2017-08-20T03:24:07.803Z,8.00
2017-08-20T03:25:07.790Z,7.98
2017-08-20T03:26:07.779Z,8.05
2017-08-20T03:27:07.766Z,8.02
2017-08-20T03:28:07.755Z,8.02
2017-08-20T03:29:07.846Z,8.04
2017-08-20T03:30:07.734Z,8.01
2017-08-20T03:31:07.723Z,8.10
2017-08-20T03:32:07.706Z,8.15
2017-08-20T03:33:07.693Z,8.10
2017-08-20T03:34:07.680Z,8.12
2017-08-20T03:35:07.768Z,8.11
2017-08-20T03:36:07.664Z,8.15
2017-08-20T03:37:07.644Z,8.19
2017-08-20T03:38:07.633Z,8.16
2017-08-20T03:39:07.621Z,8.19
2017-08-20T03:40:07.613Z,8.20
2017-08-20T03:41:07.700Z,8.18
2017-08-20T03:42:07.583Z,8.19
2017-08-20T03:43:07.571Z,8.20
2017-08-20T03:44:07.560Z,8.23
2017-08-20T03:45:07.548Z,8.28
2017-08-20T03:46:07.535Z,8.28
2017-08-20T03:47:07.624Z,8.29
2017-08-20T03:48:07.511Z,8.22
2017-08-20T03:49:07.504Z,8.22
2017-08-20T03:50:07.486Z,8.30
2017-08-20T03:51:07.476Z,8.22
2017-08-20T03:52:07.463Z,8.36
2017-08-20T03:53:07.452Z,8.33
2017-08-20T03:54:07.438Z,8.29
2017-08-20T03:55:07.533Z,8.23
2017-08-20T03:56:07.416Z,8.33
2017-08-20T03:57:07.404Z,8.26
2017-08-20T03:58:07.390Z,8.23
2017-08-20T03:59:07.380Z,8.33
2017-08-20T04:00:07.373Z,8.26
2017-08-20T04:01:07.360Z,8.37
2017-08-20T04:02:07.363Z,8.38
2017-08-20T04:03:07.637Z,8.43
2017-08-20T04:04:07.319Z,8.43
2017-08-20T04:05:07.412Z,8.40
2017-08-20T04:06:07.295Z,8.43
2017-08-20T04:07:07.285Z,8.41
2017-08-20T04:08:07.272Z,8.41
2017-08-20T04:09:07.259Z,8.44
2017-08-20T04:10:07.249Z,8.48
2017-08-20T04:11:07.337Z,8.45
2017-08-20T04:12:07.227Z,8.48
2017-08-20T04:13:07.212Z,8.48
2017-08-20T04:14:07.200Z,8.50
2017-08-20T04:15:07.189Z,8.52
2017-08-20T04:16:07.177Z,8.47
2017-08-20T04:17:07.264Z,8.50
2017-08-20T04:18:07.157Z,8.50
2017-08-20T04:19:07.142Z,8.55
2017-08-20T04:20:07.129Z,8.55
2017-08-20T04:21:07.118Z,8.52
2017-08-20T04:22:07.105Z,8.48
2017-08-20T04:23:07.199Z,8.53
2017-08-20T04:24:07.088Z,8.55
2017-08-20T04:25:07.068Z,8.55
2017-08-20T04:26:07.064Z,8.58
2017-08-20T04:27:07.045Z,8.55
2017-08-20T04:28:07.040Z,8.52
2017-08-20T04:29:07.121Z,8.56
2017-08-20T04:30:07.015Z,8.48
2017-08-20T04:31:07.004Z,8.55
2017-08-20T04:32:06.987Z,8.48
2017-08-20T04:33:06.974Z,8.48
2017-08-20T04:34:06.964Z,8.55
2017-08-20T04:35:07.052Z,8.48
2017-08-20T04:36:06.940Z,8.56
2017-08-20T04:37:06.926Z,8.55
2017-08-20T04:38:06.914Z,8.59
2017-08-20T04:39:06.903Z,8.48
2017-08-20T04:40:06.897Z,8.58
2017-08-20T04:41:06.987Z,8.52
2017-08-20T04:42:06.869Z,8.53
2017-08-20T04:43:06.856Z,8.48
2017-08-20T04:44:06.844Z,8.56
2017-08-20T04:45:06.832Z,8.44
2017-08-20T04:46:06.821Z,8.47
2017-08-20T04:47:06.913Z,8.44
2017-08-20T04:48:06.800Z,8.41
2017-08-20T04:49:06.785Z,8.38
2017-08-20T04:50:06.779Z,8.40
2017-08-20T04:51:06.862Z,8.38
2017-08-20T04:52:06.748Z,8.38
2017-08-20T04:53:06.838Z,8.41
2017-08-20T04:54:06.731Z,8.45
2017-08-20T04:55:06.718Z,8.45
2017-08-20T04:56:06.702Z,8.43
2017-08-20T04:57:06.689Z,8.36
2017-08-20T04:58:06.678Z,8.33
2017-08-20T04:59:06.766Z,8.40
2017-08-20T05:00:06.654Z,8.25
2017-08-20T05:01:06.642Z,8.34
2017-08-20T05:02:06.636Z,8.25
2017-08-20T05:03:06.618Z,8.28
2017-08-20T05:04:06.615Z,8.28
2017-08-20T05:05:06.695Z,8.37
2017-08-20T05:06:06.582Z,8.33
2017-08-20T05:07:06.571Z,8.33
2017-08-20T05:08:06.559Z,8.38
2017-08-20T05:09:06.548Z,8.43
2017-08-20T05:10:06.536Z,8.40
2017-08-20T05:11:06.623Z,8.45
2017-08-20T05:12:06.514Z,8.43
2017-08-20T05:13:06.499Z,8.53
2017-08-20T05:14:06.489Z,8.50
2017-08-20T05:15:06.482Z,8.55
2017-08-20T05:16:06.470Z,8.55
2017-08-20T05:17:06.558Z,8.59
2017-08-20T05:18:06.442Z,8.58
2017-08-20T05:19:06.429Z,8.58
2017-08-20T05:20:06.422Z,8.61
2017-08-20T05:21:06.411Z,8.56
2017-08-20T05:22:06.393Z,8.59
2017-08-20T05:23:06.482Z,8.59
2017-08-20T05:24:06.370Z,8.71
2017-08-20T05:25:06.364Z,8.70
2017-08-20T05:26:06.351Z,8.76
2017-08-20T05:27:06.335Z,8.83
2017-08-20T05:28:06.328Z,8.70
2017-08-20T05:29:06.312Z,8.74
2017-08-20T05:30:06.300Z,8.80
2017-08-20T05:31:06.288Z,8.80
2017-08-20T05:32:06.277Z,8.87
2017-08-20T05:33:06.271Z,8.96
2017-08-20T05:34:06.359Z,8.94
2017-08-20T05:35:06.247Z,8.96
2017-08-20T05:36:06.231Z,9.01
2017-08-20T05:37:06.218Z,8.95
2017-08-20T05:38:06.244Z,9.04
2017-08-20T05:39:06.296Z,9.10
2017-08-20T05:40:06.289Z,9.11
2017-08-20T05:41:06.207Z,9.10
2017-08-20T05:42:06.162Z,9.13
2017-08-20T05:43:06.151Z,9.15
2017-08-20T05:44:06.144Z,9.15
2017-08-20T05:45:06.126Z,9.11
2017-08-20T05:46:06.121Z,9.14
2017-08-20T05:47:06.104Z,9.17
2017-08-20T05:48:06.099Z,9.21
2017-08-20T05:49:06.180Z,9.17
2017-08-20T05:50:06.070Z,9.20
2017-08-20T05:51:06.061Z,9.26
2017-08-20T05:52:06.057Z,9.18
2017-08-20T05:53:06.035Z,9.21
2017-08-20T05:54:06.124Z,9.29
2017-08-20T05:55:06.112Z,9.31
2017-08-20T05:56:06.007Z,9.40
2017-08-20T05:57:05.989Z,9.33
2017-08-20T05:58:05.978Z,9.36
2017-08-20T05:59:05.972Z,9.38
2017-08-20T06:00:05.973Z,9.54
2017-08-20T06:01:06.045Z,9.56
2017-08-20T06:02:05.932Z,9.57
2017-08-20T06:03:05.928Z,9.51
2017-08-20T06:04:05.910Z,9.36
2017-08-20T06:05:05.898Z,9.40
2017-08-20T06:06:05.887Z,9.33
2017-08-20T06:07:05.979Z,9.35
2017-08-20T06:08:05.865Z,9.18
2017-08-20T06:09:05.853Z,9.24
2017-08-20T06:10:05.841Z,9.20
2017-08-20T06:11:05.858Z,9.17
2017-08-20T06:12:05.819Z,9.14
2017-08-20T06:13:05.912Z,9.24
2017-08-20T06:14:05.795Z,9.20
2017-08-20T06:15:05.791Z,9.17
2017-08-20T06:16:05.773Z,9.14
2017-08-20T06:17:05.761Z,9.10
2017-08-20T06:18:05.750Z,9.04
2017-08-20T06:19:05.848Z,9.08
2017-08-20T06:20:05.728Z,9.04
2017-08-20T06:21:05.713Z,9.10
2017-08-20T06:22:05.702Z,9.14
2017-08-20T06:23:05.692Z,9.10
2017-08-20T06:24:05.679Z,9.10
2017-08-20T06:25:05.773Z,8.96
2017-08-20T06:26:05.662Z,9.05
2017-08-20T06:27:05.645Z,9.04
2017-08-20T06:28:05.632Z,9.04
2017-08-20T06:29:05.620Z,9.23
2017-08-20T06:30:05.608Z,9.17
2017-08-20T06:31:05.598Z,9.24
2017-08-20T06:32:05.590Z,9.24
2017-08-20T06:33:05.573Z,9.26
2017-08-20T06:34:05.562Z,9.23
2017-08-20T06:35:05.550Z,9.29
2017-08-20T06:36:05.639Z,9.38
2017-08-20T06:37:05.532Z,9.43
2017-08-20T06:38:05.516Z,9.38
2017-08-20T06:39:05.510Z,9.42
2017-08-20T06:40:05.497Z,9.64
2017-08-20T06:41:05.486Z,9.79
2017-08-20T06:42:05.575Z,10.27
2017-08-20T06:43:05.458Z,10.88
2017-08-20T06:44:05.448Z,11.88
2017-08-20T06:45:05.436Z,12.68
2017-08-20T06:46:05.426Z,13.22
2017-08-20T06:47:05.419Z,13.99
2017-08-20T06:48:05.509Z,14.68
2017-08-20T06:49:05.401Z,15.29
2017-08-20T06:50:05.469Z,15.78
2017-08-20T06:51:05.389Z,15.84
2017-08-20T06:52:05.382Z,15.54
2017-08-20T06:53:05.380Z,15.06
2017-08-20T06:54:05.469Z,14.54
2017-08-20T06:55:05.367Z,14.04
2017-08-20T06:56:05.360Z,13.64
2017-08-20T06:57:05.352Z,13.51
2017-08-20T06:58:05.342Z,13.29
2017-08-20T06:59:05.335Z,13.22
2017-08-20T07:00:05.429Z,13.10
2017-08-20T07:01:05.321Z,12.95
2017-08-20T07:02:05.314Z,12.78
2017-08-20T07:03:05.308Z,12.41
2017-08-20T07:04:05.302Z,12.17
2017-08-20T07:05:05.294Z,11.99
2017-08-20T07:06:05.386Z,11.85
2017-08-20T07:07:05.285Z,11.73
2017-08-20T07:08:05.271Z,11.64
2017-08-20T07:09:05.270Z,11.51
2017-08-20T07:10:05.356Z,11.42
2017-08-20T07:11:05.254Z,11.28
2017-08-20T07:12:05.340Z,11.25
2017-08-20T07:13:05.232Z,11.27
2017-08-20T07:14:05.224Z,11.18
2017-08-20T07:15:05.221Z,11.03
2017-08-20T07:16:05.207Z,10.96
2017-08-20T07:17:05.203Z,10.92
2017-08-20T07:18:05.289Z,10.94
2017-08-20T07:19:05.181Z,10.73
2017-08-20T07:20:05.180Z,10.78
2017-08-20T07:21:05.163Z,10.78
2017-08-20T07:22:05.153Z,10.85
2017-08-20T07:23:05.145Z,11.00
2017-08-20T07:24:05.236Z,11.11
2017-08-20T07:25:05.128Z,11.37
2017-08-20T07:26:05.119Z,11.70
2017-08-20T07:27:05.110Z,12.02
2017-08-20T07:28:05.102Z,12.04
2017-08-20T07:29:05.098Z,12.24
2017-08-20T07:30:05.184Z,12.37
2017-08-20T07:31:05.076Z,12.47
2017-08-20T07:32:05.067Z,12.42
2017-08-20T07:33:05.059Z,12.34
2017-08-20T07:34:05.051Z,12.27
2017-08-20T07:35:05.049Z,12.12
2017-08-20T07:36:05.036Z,11.91
2017-08-20T07:37:05.027Z,11.88
2017-08-20T07:38:05.120Z,11.75
2017-08-20T07:39:05.011Z,11.62
2017-08-20T07:40:05.004Z,11.57
2017-08-20T07:41:04.995Z,11.51
2017-08-20T07:42:04.986Z,11.47
2017-08-20T07:43:04.984Z,11.36
2017-08-20T07:44:05.072Z,11.29
2017-08-20T07:45:04.961Z,11.24
2017-08-20T07:46:04.952Z,11.18
2017-08-20T07:47:04.944Z,11.17
2017-08-20T07:48:04.936Z,11.15
2017-08-20T07:49:04.925Z,11.27
2017-08-20T07:50:04.924Z,11.18
2017-08-20T07:51:04.912Z,11.19
2017-08-20T07:52:04.900Z,11.18
2017-08-20T07:53:04.991Z,11.18
2017-08-20T07:54:04.881Z,11.17
2017-08-20T07:55:04.874Z,11.15
2017-08-20T07:56:04.865Z,11.21
2017-08-20T07:57:04.863Z,11.14
2017-08-20T07:58:04.845Z,11.10
2017-08-20T07:59:04.938Z,11.10
2017-08-20T08:00:04.827Z,11.14
2017-08-20T08:01:04.819Z,11.14
2017-08-20T08:02:04.809Z,11.10
2017-08-20T08:03:04.804Z,11.17
2017-08-20T08:04:04.789Z,11.28
2017-08-20T08:05:04.882Z,11.29
2017-08-20T08:06:04.770Z,11.32
2017-08-20T08:07:04.764Z,11.52
2017-08-20T08:08:04.758Z,11.46
2017-08-20T08:09:04.743Z,11.60
2017-08-20T08:10:04.732Z,11.60
2017-08-20T08:11:04.824Z,11.54
2017-08-20T08:12:04.719Z,11.52
2017-08-20T08:13:04.705Z,11.42
2017-08-20T08:14:04.696Z,11.39
2017-08-20T08:15:04.686Z,11.36
2017-08-20T08:16:04.675Z,11.44
2017-08-20T08:17:04.765Z,11.57
2017-08-20T08:18:04.656Z,11.60
2017-08-20T08:19:04.651Z,11.64
2017-08-20T08:20:04.639Z,11.58
2017-08-20T08:21:04.627Z,11.55
2017-08-20T08:22:04.619Z,11.54
2017-08-20T08:23:04.709Z,11.62
2017-08-20T08:24:04.600Z,11.67
2017-08-20T08:25:04.589Z,11.69
2017-08-20T08:26:04.579Z,11.75
2017-08-20T08:27:04.572Z,11.95
2017-08-20T08:28:04.567Z,12.10
2017-08-20T08:29:04.551Z,12.23
2017-08-20T08:30:04.542Z,12.28
2017-08-20T08:31:04.633Z,12.21
2017-08-20T08:32:04.526Z,12.31
2017-08-20T08:33:04.515Z,12.28
2017-08-20T08:34:04.505Z,12.41
2017-08-20T08:35:04.502Z,12.41
2017-08-20T08:36:04.486Z,12.42
2017-08-20T08:37:04.479Z,12.34
2017-08-20T08:38:04.474Z,12.32
2017-08-20T08:39:04.459Z,12.29
2017-08-20T08:40:04.450Z,12.31
2017-08-20T08:41:04.540Z,12.09
2017-08-20T08:42:04.437Z,11.91
2017-08-20T08:43:04.424Z,11.88
2017-08-20T08:44:04.415Z,11.80
2017-08-20T08:45:04.405Z,11.88
2017-08-20T08:46:04.396Z,11.86
2017-08-20T08:47:04.486Z,11.88
2017-08-20T08:48:04.377Z,11.85
2017-08-20T08:49:04.368Z,11.85
2017-08-20T08:50:04.358Z,12.01
2017-08-20T08:51:04.351Z,12.07
2017-08-20T08:52:04.340Z,12.28
2017-08-20T08:53:04.333Z,12.32
2017-08-20T08:54:04.322Z,12.31
2017-08-20T08:55:04.361Z,12.10
2017-08-20T08:56:04.472Z,12.02
2017-08-20T08:57:04.294Z,11.88
2017-08-20T08:58:04.290Z,12.01
2017-08-20T08:59:04.277Z,12.14
2017-08-20T09:00:04.269Z,12.24
2017-08-20T09:01:04.256Z,12.24
2017-08-20T09:02:04.354Z,12.09
2017-08-20T09:03:04.239Z,11.98
2017-08-20T09:04:04.231Z,11.94
2017-08-20T09:05:04.226Z,11.95
2017-08-20T09:06:04.211Z,11.90
2017-08-20T09:07:04.203Z,11.86
2017-08-20T09:08:04.295Z,11.76
2017-08-20T09:09:04.189Z,11.82
2017-08-20T09:10:04.174Z,11.86
2017-08-20T09:11:04.166Z,11.88
2017-08-20T09:12:04.157Z,11.91
2017-08-20T09:13:04.152Z,11.85
2017-08-20T09:14:04.237Z,11.85
2017-08-20T09:15:04.129Z,11.91
2017-08-20T09:16:04.119Z,12.20
2017-08-20T09:17:04.111Z,12.29
2017-08-20T09:18:04.102Z,12.54
2017-08-20T09:19:04.093Z,12.68
2017-08-20T09:20:04.089Z,12.87
2017-08-20T09:21:04.075Z,12.82
2017-08-20T09:22:04.071Z,12.75
2017-08-20T09:23:04.061Z,12.82
2017-08-20T09:24:04.049Z,12.62
2017-08-20T09:25:04.038Z,12.56
2017-08-20T09:26:04.130Z,12.52
2017-08-20T09:27:04.022Z,12.64
2017-08-20T09:28:04.013Z,12.67
2017-08-20T09:29:04.008Z,12.72
2017-08-20T09:30:04.000Z,12.90
2017-08-20T09:31:03.985Z,13.14
2017-08-20T09:32:04.079Z,13.12
2017-08-20T09:33:03.967Z,13.22
2017-08-20T09:34:04.094Z,13.12
2017-08-20T09:35:03.956Z,13.08
2017-08-20T09:36:03.947Z,12.90
2017-08-20T09:37:03.935Z,12.62
2017-08-20T09:38:04.180Z,12.57
2017-08-20T09:39:04.016Z,12.41
2017-08-20T09:40:03.909Z,12.32
2017-08-20T09:41:03.898Z,12.32
2017-08-20T09:42:03.890Z,12.21
2017-08-20T09:43:03.886Z,12.27
2017-08-20T09:44:03.873Z,12.23
2017-08-20T09:45:03.966Z,12.29
2017-08-20T09:46:03.860Z,12.29
2017-08-20T09:47:03.846Z,12.29
2017-08-20T09:48:03.837Z,12.42
2017-08-20T09:49:03.831Z,12.37
2017-08-20T09:50:03.820Z,12.38
2017-08-20T09:51:03.910Z,12.54
2017-08-20T09:52:03.803Z,12.74
2017-08-20T09:53:03.792Z,12.79
2017-08-20T09:54:03.784Z,12.89
2017-08-20T09:55:03.876Z,13.08
2017-08-20T09:56:03.765Z,13.08
2017-08-20T09:57:03.858Z,13.07
2017-08-20T09:58:03.752Z,13.00
2017-08-20T09:59:03.746Z,12.92
2017-08-20T10:00:03.735Z,12.77
2017-08-20T10:01:03.729Z,12.77
2017-08-20T10:02:03.715Z,12.89
2017-08-20T10:03:03.807Z,12.97
2017-08-20T10:04:03.702Z,13.14
2017-08-20T10:05:03.689Z,13.19
2017-08-20T10:06:03.681Z,13.29
2017-08-20T10:07:03.677Z,13.32
2017-08-20T10:08:03.667Z,13.29
2017-08-20T10:09:03.760Z,13.30
2017-08-20T10:10:03.652Z,13.33
2017-08-20T10:11:03.638Z,13.26
2017-08-20T10:12:03.635Z,13.29
2017-08-20T10:13:03.621Z,13.23
2017-08-20T10:14:03.615Z,13.23
2017-08-20T10:15:03.709Z,13.26
2017-08-20T10:16:03.598Z,13.29
2017-08-20T10:17:03.587Z,13.64
2017-08-20T10:18:03.579Z,13.77
2017-08-20T10:19:03.575Z,13.64
2017-08-20T10:20:03.563Z,13.73
2017-08-20T10:21:03.656Z,13.69
2017-08-20T10:22:03.546Z,13.71
2017-08-20T10:23:03.543Z,13.75
2017-08-20T10:24:03.536Z,13.92
2017-08-20T10:25:03.523Z,14.00
2017-08-20T10:26:03.513Z,14.03
2017-08-20T10:27:03.509Z,14.14
2017-08-20T10:28:03.503Z,14.07
2017-08-20T10:29:03.598Z,14.07
2017-08-20T10:30:03.484Z,14.18
2017-08-20T10:31:03.478Z,14.28
2017-08-20T10:32:03.465Z,14.37
2017-08-20T10:33:03.457Z,14.57
2017-08-20T10:34:03.449Z,14.54
2017-08-20T10:35:03.543Z,14.65
2017-08-20T10:36:03.434Z,14.81
2017-08-20T10:37:03.426Z,14.78
2017-08-20T10:38:03.421Z,14.68
2017-08-20T10:39:03.413Z,14.68
2017-08-20T10:40:03.410Z,14.55
2017-08-20T10:41:03.496Z,14.52
2017-08-20T10:42:03.389Z,14.47
2017-08-20T10:43:03.382Z,14.62
2017-08-20T10:44:03.375Z,14.64
2017-08-20T10:45:03.366Z,14.69
2017-08-20T10:46:03.360Z,14.60
2017-08-20T10:47:03.452Z,14.57
2017-08-20T10:48:03.345Z,14.81
2017-08-20T10:49:03.343Z,14.89
2017-08-20T10:50:03.330Z,14.94
2017-08-20T10:51:03.323Z,14.94
2017-08-20T10:52:03.321Z,14.95
2017-08-20T10:53:03.409Z,15.17
2017-08-20T10:54:03.301Z,15.17
2017-08-20T10:55:03.293Z,15.06
2017-08-20T10:56:03.294Z,15.01
2017-08-20T10:57:03.278Z,14.98
2017-08-20T10:58:03.278Z,15.01
2017-08-20T10:59:03.368Z,14.91
2017-08-20T11:00:03.257Z,15.09
2017-08-20T11:01:03.252Z,14.95
2017-08-20T11:02:03.243Z,14.98
2017-08-20T11:03:03.236Z,15.02
2017-08-20T11:04:03.229Z,15.17
2017-08-20T11:05:03.322Z,15.17
2017-08-20T11:06:03.214Z,15.20
2017-08-20T11:07:03.214Z,15.28
2017-08-20T11:08:03.202Z,15.17
2017-08-20T11:09:03.194Z,15.20
2017-08-20T11:10:03.193Z,15.19
2017-08-20T11:11:03.279Z,15.20
2017-08-20T11:12:03.179Z,15.06
2017-08-20T11:13:03.171Z,15.06
2017-08-20T11:14:03.158Z,15.16
2017-08-20T11:15:03.151Z,15.35
2017-08-20T11:16:03.151Z,15.46
2017-08-20T11:17:03.242Z,15.51
2017-08-20T11:18:03.130Z,15.67
2017-08-20T11:19:03.125Z,15.83
2017-08-20T11:20:03.118Z,15.78
2017-08-20T11:21:03.110Z,15.60
2017-08-20T11:22:03.104Z,15.56
2017-08-20T11:23:03.097Z,15.49
2017-08-20T11:24:03.091Z,15.39
2017-08-20T11:25:03.084Z,15.50
2017-08-20T11:26:03.077Z,15.69
2017-08-20T11:27:03.170Z,15.57
2017-08-20T11:28:03.063Z,15.65
2017-08-20T11:29:03.056Z,15.56
2017-08-20T11:30:03.049Z,15.69
2017-08-20T11:31:03.043Z,15.67
2017-08-20T11:32:03.043Z,15.71
2017-08-20T11:33:03.130Z,15.56
2017-08-20T11:34:03.030Z,15.53
2017-08-20T11:35:03.017Z,15.56
2017-08-20T11:36:03.010Z,15.44
2017-08-20T11:37:03.005Z,15.43
2017-08-20T11:38:02.997Z,15.36
2017-08-20T11:39:03.090Z,15.19
2017-08-20T11:40:02.997Z,15.16
2017-08-20T11:41:02.983Z,15.19
2017-08-20T11:42:02.972Z,15.27
2017-08-20T11:43:02.965Z,15.34
2017-08-20T11:44:02.958Z,15.47
2017-08-20T11:45:03.053Z,15.53
2017-08-20T11:46:02.945Z,15.56
2017-08-20T11:47:02.940Z,15.60
2017-08-20T11:48:02.932Z,15.65
2017-08-20T11:49:02.925Z,15.69
2017-08-20T11:50:02.919Z,15.68
2017-08-20T11:51:03.013Z,15.53
2017-08-20T11:52:02.907Z,15.53
2017-08-20T11:53:02.901Z,15.62
2017-08-20T11:54:02.900Z,15.83
2017-08-20T11:55:02.893Z,15.83
2017-08-20T11:56:02.881Z,15.94
2017-08-20T11:57:02.874Z,16.09
2017-08-20T11:58:02.875Z,16.23
2017-08-20T11:59:02.969Z,16.28
2017-08-20T12:00:02.857Z,16.34
2017-08-20T12:01:02.851Z,16.53
2017-08-20T12:02:02.845Z,16.79
2017-08-20T12:03:02.838Z,16.66
2017-08-20T12:04:02.838Z,16.78
2017-08-20T12:05:02.826Z,17.03
2017-08-20T12:06:02.820Z,17.11
2017-08-20T12:07:02.814Z,17.22
2017-08-20T12:08:02.809Z,17.11
2017-08-20T12:09:02.908Z,17.22
2017-08-20T12:10:02.799Z,17.40
2017-08-20T12:11:02.896Z,17.63
2017-08-20T12:12:02.790Z,17.71
2017-08-20T12:13:02.785Z,17.89
2017-08-20T12:14:02.774Z,17.74
2017-08-20T12:15:02.869Z,17.70
2017-08-20T12:16:02.768Z,17.77
2017-08-20T12:17:02.758Z,17.37
2017-08-20T12:18:02.753Z,17.15
2017-08-20T12:19:02.747Z,16.82
2017-08-20T12:20:02.748Z,16.76
2017-08-20T12:21:02.839Z,16.61
2017-08-20T12:22:02.736Z,16.57
2017-08-20T12:23:02.743Z,16.46
2017-08-20T12:24:02.722Z,16.46
2017-08-20T12:25:02.715Z,16.43
2017-08-20T12:26:02.714Z,16.34
2017-08-20T12:27:02.810Z,16.31
2017-08-20T12:28:03.005Z,16.34
2017-08-20T12:29:02.691Z,16.21
2017-08-20T12:30:02.686Z,16.17
2017-08-20T12:31:02.682Z,16.21
2017-08-20T12:32:02.677Z,16.31
2017-08-20T12:33:02.770Z,16.41
2017-08-20T12:34:02.665Z,16.41
2017-08-20T12:35:02.660Z,16.43
2017-08-20T12:36:02.660Z,16.63
2017-08-20T12:37:02.647Z,16.85
2017-08-20T12:38:02.645Z,16.79
2017-08-20T12:39:02.738Z,17.04
2017-08-20T12:40:02.636Z,17.04
2017-08-20T12:41:02.626Z,17.23
2017-08-20T12:42:02.620Z,17.33
2017-08-20T12:43:02.615Z,17.25
2017-08-20T12:44:02.609Z,16.89
2017-08-20T12:45:02.705Z,16.85
2017-08-20T12:46:02.597Z,16.76
2017-08-20T12:47:02.594Z,16.86
2017-08-20T12:48:02.587Z,16.83
2017-08-20T12:49:02.583Z,16.68
2017-08-20T12:50:02.581Z,16.78
2017-08-20T12:51:02.672Z,16.71
2017-08-20T12:52:02.565Z,16.61
2017-08-20T12:53:02.560Z,16.53
2017-08-20T12:54:02.555Z,16.46
2017-08-20T12:55:02.550Z,16.56
2017-08-20T12:56:02.543Z,16.60
2017-08-20T12:57:02.636Z,16.66
2017-08-20T12:58:02.533Z,16.70
2017-08-20T12:59:02.532Z,16.70
2017-08-20T13:00:02.527Z,16.81
2017-08-20T13:01:02.514Z,16.82
2017-08-20T13:02:02.765Z,16.85
2017-08-20T13:03:02.603Z,16.85
2017-08-20T13:04:02.498Z,16.98
2017-08-20T13:05:02.492Z,17.01